Orbital elements of CZ-4B R/B
| Launched | 18 September 2007 |
| Flight ended | – |
| Launch site | Taiyuan Space Center, PRC |
| Owner | People's Republic of China |
| NORAD ID | 32063 |
| Date fetched |
Epoch osculation |
Inc. [°] |
Ecc. | RA asc node [hr] |
Arg Peri. [°] |
Mean anom [°] |
Mean motion [rev/day] |
Abs. mag |
| Date fetched |
Epoch osculation |
Inc. [°] |
Ecc. | RA asc node [hr] |
Arg Peri. [°] |
Mean anom [°] |
Mean motion [rev/day] |
Abs. mag |
| 2026 May 08 17:57 | 2026 May 05 11:07:49 | 98.2095 | 0.00533 | 4.7282 | 253.3613 | 218.5781 | 14.52423 | 5.500 |
| 2026 May 07 17:58 | 2026 May 05 11:07:49 | 98.2095 | 0.00533 | 4.7282 | 253.3613 | 218.5781 | 14.52423 | 5.500 |
| 2026 May 06 17:57 | 2026 May 05 11:07:49 | 98.2095 | 0.00533 | 4.7282 | 253.3613 | 218.5781 | 14.52423 | 5.500 |
| 2026 May 05 17:57 | 2026 May 05 11:07:49 | 98.2095 | 0.00533 | 4.7282 | 253.3613 | 218.5781 | 14.52423 | 5.500 |
| 2026 May 04 17:57 | 2026 Apr 30 14:01:28 | 98.2092 | 0.00533 | 4.4099 | 268.7771 | 218.5781 | 14.52423 | 5.500 |
| 2026 May 03 17:57 | 2026 Apr 30 14:01:28 | 98.2092 | 0.00533 | 4.4099 | 268.7771 | 218.5781 | 14.52423 | 5.500 |
| 2026 May 02 17:57 | 2026 Apr 30 14:01:28 | 98.2092 | 0.00533 | 4.4099 | 268.7771 | 218.5781 | 14.52423 | 5.500 |
| 2026 May 01 17:56 | 2026 Apr 30 14:01:28 | 98.2092 | 0.00533 | 4.4099 | 268.7771 | 218.5781 | 14.52423 | 5.500 |
| 2026 Apr 30 17:56 | 2026 Apr 30 14:01:28 | 98.2092 | 0.00533 | 4.4099 | 268.7771 | 218.5781 | 14.52423 | 5.500 |
| 2026 Apr 29 17:57 | 2026 Apr 24 07:30:40 | 98.2083 | 0.00533 | 4.0009 | 288.5618 | 218.5781 | 14.52423 | 5.500 |
| 2026 Apr 28 17:56 | 2026 Apr 24 07:30:40 | 98.2083 | 0.00533 | 4.0009 | 288.5618 | 218.5781 | 14.52423 | 5.500 |
| 2026 Apr 27 17:58 | 2026 Apr 24 07:30:40 | 98.2083 | 0.00533 | 4.0009 | 288.5618 | 218.5781 | 14.52423 | 5.500 |
| 2026 Apr 26 17:58 | 2026 Apr 24 07:30:40 | 98.2083 | 0.00533 | 4.0009 | 288.5618 | 218.5781 | 14.52423 | 5.500 |
| 2026 Apr 25 17:58 | 2026 Apr 24 07:30:40 | 98.2083 | 0.00533 | 4.0009 | 288.5618 | 218.5781 | 14.52423 | 5.500 |
| 2026 Apr 24 17:59 | 2026 Apr 24 07:30:40 | 98.2083 | 0.00533 | 4.0009 | 288.5618 | 218.5781 | 14.52423 | 5.500 |
| 2026 Apr 23 17:57 | 2026 Apr 19 08:25:17 | 98.2078 | 0.00535 | 3.6774 | 304.1819 | 218.5781 | 14.52423 | 5.500 |
| 2026 Apr 22 17:57 | 2026 Apr 19 08:25:17 | 98.2078 | 0.00535 | 3.6774 | 304.1819 | 218.5781 | 14.52423 | 5.500 |
| 2026 Apr 21 17:57 | 2026 Apr 19 08:25:17 | 98.2078 | 0.00535 | 3.6774 | 304.1819 | 218.5781 | 14.52423 | 5.500 |
| 2026 Apr 20 17:57 | 2026 Apr 19 08:25:17 | 98.2078 | 0.00535 | 3.6774 | 304.1819 | 218.5781 | 14.52423 | 5.500 |
| 2026 Apr 19 17:58 | 2026 Apr 19 08:25:17 | 98.2078 | 0.00535 | 3.6774 | 304.1819 | 218.5781 | 14.52423 | 5.500 |
| 2026 Apr 18 17:56 | 2026 Apr 13 06:59:26 | 98.2069 | 0.00538 | 3.2823 | 323.1885 | 218.5781 | 14.52423 | 5.500 |
| 2026 Apr 16 17:57 | 2026 Apr 13 06:59:26 | 98.2069 | 0.00538 | 3.2823 | 323.1885 | 218.5781 | 14.52423 | 5.500 |
| 2026 Apr 14 17:57 | 2026 Apr 13 06:59:26 | 98.2069 | 0.00538 | 3.2823 | 323.1885 | 218.5781 | 14.52423 | 5.500 |
| 2026 Apr 13 17:57 | 2026 Apr 13 06:59:26 | 98.2069 | 0.00538 | 3.2823 | 323.1885 | 218.5781 | 14.52423 | 5.500 |
| 2026 Apr 12 17:57 | 2026 Apr 08 14:35:12 | 98.2063 | 0.00541 | 2.9769 | 337.7564 | 218.5781 | 14.52423 | 5.500 |
| 2026 Apr 11 17:57 | 2026 Apr 08 14:35:12 | 98.2063 | 0.00541 | 2.9769 | 337.7564 | 218.5781 | 14.52423 | 5.500 |